createdAt,value
2018-03-23T00:00:40.264Z,11.23
2018-03-23T00:06:08.427Z,11.30
2018-03-23T00:11:36.620Z,12.07
2018-03-23T00:17:05.583Z,11.40
2018-03-23T00:22:33.750Z,12.83
2018-03-23T00:28:07.702Z,12.60
2018-03-23T00:33:36.634Z,14.97
2018-03-23T00:39:06.503Z,14.67
2018-03-23T00:44:34.741Z,15.20
2018-03-23T00:50:02.896Z,14.70
2018-03-23T00:55:31.037Z,14.00
2018-03-23T01:01:01.123Z,14.10
2018-03-23T01:06:30.092Z,13.97
2018-03-23T01:11:58.205Z,14.40
2018-03-23T01:17:26.351Z,14.23
2018-03-23T01:22:54.753Z,15.67
2018-03-23T01:28:22.896Z,13.97
2018-03-23T01:33:51.051Z,14.80
2018-03-23T01:39:19.212Z,16.60
2018-03-23T01:44:48.332Z,17.00
2018-03-23T01:50:17.263Z,14.50
2018-03-23T01:55:46.199Z,15.27
2018-03-23T02:01:29.821Z,14.90
2018-03-23T02:07:01.712Z,13.27
2018-03-23T02:12:29.853Z,13.80
2018-03-23T02:17:58.010Z,14.00
2018-03-23T02:23:26.142Z,15.70
2018-03-23T02:28:55.038Z,17.70
2018-03-23T02:34:23.207Z,13.47
2018-03-23T02:39:54.085Z,14.07
2018-03-23T02:45:23.009Z,15.47
2018-03-23T02:50:51.958Z,14.17
2018-03-23T02:56:20.874Z,15.50
2018-03-23T03:01:49.044Z,17.17
2018-03-23T03:07:17.192Z,15.03
2018-03-23T03:12:45.332Z,15.77
2018-03-23T03:18:13.478Z,14.33
2018-03-23T03:23:42.393Z,13.03
2018-03-23T03:29:10.530Z,15.20
2018-03-23T03:34:38.674Z,16.87
2018-03-23T03:40:07.767Z,16.00
2018-03-23T03:45:35.925Z,14.83
2018-03-23T03:51:04.847Z,14.97
2018-03-23T03:56:33.757Z,13.77
2018-03-23T04:02:01.902Z,16.17
2018-03-23T04:07:30.827Z,14.97
2018-03-23T04:12:58.966Z,16.40
2018-03-23T04:18:28.080Z,14.77
2018-03-23T04:23:56.234Z,14.97
2018-03-23T04:29:25.126Z,13.80
2018-03-23T04:34:53.273Z,17.60
2018-03-23T04:40:22.171Z,17.23
2018-03-23T04:45:50.340Z,16.63
2018-03-23T04:51:19.245Z,17.60
2018-03-23T04:56:47.371Z,17.07
2018-03-23T05:02:15.569Z,15.87
2018-03-23T05:07:43.723Z,15.37
2018-03-23T05:13:13.796Z,18.27
2018-03-23T05:18:44.003Z,17.80
2018-03-23T05:24:12.948Z,16.33
2018-03-23T05:29:41.095Z,12.57
2018-03-23T05:35:09.259Z,16.27
2018-03-23T05:40:37.409Z,15.27
2018-03-23T05:46:05.620Z,14.37
2018-03-23T05:51:33.779Z,28.02
2018-03-23T05:57:02.023Z,19.17
2018-03-23T06:02:31.879Z,15.37
2018-03-23T06:08:00.024Z,16.53
2018-03-23T06:13:28.160Z,14.07
2018-03-23T06:18:56.281Z,16.43
2018-03-23T06:24:24.421Z,15.73
2018-03-23T06:29:52.583Z,15.97
2018-03-23T06:35:21.490Z,15.30
2018-03-23T06:40:49.632Z,15.97
2018-03-23T06:46:17.786Z,15.77
2018-03-23T06:51:45.919Z,12.10
2018-03-23T06:57:14.034Z,15.10
2018-03-23T07:02:42.199Z,14.70
2018-03-23T07:08:10.336Z,11.90
2018-03-23T07:13:39.268Z,13.83
2018-03-23T07:19:07.557Z,11.80
2018-03-23T07:24:36.331Z,15.37
2018-03-23T07:30:05.248Z,13.20
2018-03-23T07:35:33.505Z,12.17
2018-03-23T07:41:02.423Z,14.20
2018-03-23T07:46:30.582Z,16.77
2018-03-23T07:51:58.719Z,12.57
2018-03-23T07:57:26.849Z,15.43
2018-03-23T08:02:54.996Z,12.30
2018-03-23T08:08:23.152Z,15.40
2018-03-23T08:13:51.293Z,15.33
2018-03-23T08:19:19.420Z,15.17
2018-03-23T08:24:47.540Z,14.90
2018-03-23T08:30:15.708Z,14.60
2018-03-23T08:35:44.608Z,15.03
2018-03-23T08:41:12.757Z,14.43
2018-03-23T08:46:41.652Z,16.80
2018-03-23T08:52:09.811Z,15.27
2018-03-23T08:57:38.784Z,15.30
2018-03-23T09:03:06.942Z,15.60
2018-03-23T09:08:35.202Z,14.00
2018-03-23T09:14:04.114Z,13.90
2018-03-23T09:19:32.249Z,14.87
2018-03-23T09:25:01.146Z,14.03
2018-03-23T09:30:29.282Z,14.70
2018-03-23T09:35:57.426Z,14.97
2018-03-23T09:41:25.558Z,12.77
2018-03-23T09:46:54.511Z,10.97
2018-03-23T09:52:23.639Z,11.90
2018-03-23T09:57:52.537Z,13.57
2018-03-23T10:03:20.665Z,12.70
2018-03-23T10:08:48.820Z,13.20
2018-03-23T10:14:17.719Z,12.87
2018-03-23T10:19:45.854Z,10.50
2018-03-23T10:25:14.023Z,11.30
2018-03-23T10:30:42.155Z,10.93
2018-03-23T10:36:10.331Z,10.43
2018-03-23T10:41:39.245Z,10.60
2018-03-23T10:47:07.414Z,9.43
2018-03-23T10:52:35.572Z,10.83
2018-03-23T10:58:06.570Z,11.07
2018-03-23T11:03:34.704Z,11.03
2018-03-23T11:09:04.099Z,11.50
2018-03-23T11:14:33.032Z,11.30
2018-03-23T11:20:01.288Z,11.70
2018-03-23T11:25:29.438Z,10.73
2018-03-23T11:30:58.351Z,10.10
2018-03-23T11:36:26.499Z,10.33
2018-03-23T11:41:54.691Z,11.37
2018-03-23T11:47:22.835Z,11.23
2018-03-23T11:52:51.739Z,11.37
2018-03-23T11:58:19.882Z,12.37
2018-03-23T12:03:48.026Z,11.00
2018-03-23T12:09:16.188Z,11.57
2018-03-23T12:14:44.341Z,10.50
2018-03-23T12:20:12.464Z,11.90
2018-03-23T12:25:40.614Z,11.30
2018-03-23T12:31:08.794Z,12.17
2018-03-23T12:36:36.939Z,13.30
2018-03-23T12:42:06.158Z,12.47
2018-03-23T12:47:34.403Z,12.90
2018-03-23T12:53:03.310Z,13.40
2018-03-23T12:58:31.453Z,14.77
2018-03-23T13:04:00.368Z,13.37
2018-03-23T13:09:28.568Z,14.13
2018-03-23T13:14:56.683Z,13.07
2018-03-23T13:20:24.817Z,11.20
2018-03-23T13:25:52.967Z,13.57
2018-03-23T13:31:21.858Z,10.30
2018-03-23T13:36:49.993Z,10.90
2018-03-23T13:42:18.149Z,10.60
2018-03-23T13:47:47.072Z,11.23
2018-03-23T13:53:15.207Z,11.80
2018-03-23T13:58:50.569Z,12.10
2018-03-23T14:04:18.759Z,12.07
2018-03-23T14:09:46.976Z,10.07
2018-03-23T14:15:15.154Z,10.33
2018-03-23T14:20:44.076Z,10.90
2018-03-23T14:26:12.228Z,12.13
2018-03-23T14:31:41.156Z,8.87
2018-03-23T14:37:10.057Z,9.70
2018-03-23T14:42:38.211Z,9.53
2018-03-23T14:48:07.164Z,10.57
2018-03-23T14:53:35.328Z,8.90
2018-03-23T14:59:09.252Z,9.97
2018-03-23T15:04:38.191Z,9.67
2018-03-23T15:10:06.345Z,9.00
2018-03-23T15:15:34.481Z,9.20
2018-03-23T15:21:02.646Z,8.20
2018-03-23T15:26:30.830Z,9.30
2018-03-23T15:31:59.764Z,9.57
2018-03-23T15:37:27.902Z,9.80
2018-03-23T15:42:56.053Z,9.80
2018-03-23T15:48:24.204Z,9.70
2018-03-23T15:53:52.352Z,8.93
2018-03-23T15:59:21.356Z,9.83
2018-03-23T16:04:49.567Z,9.47
2018-03-23T16:10:17.669Z,8.90
2018-03-23T16:15:45.935Z,8.93
2018-03-23T16:21:14.073Z,8.60
2018-03-23T16:26:42.993Z,10.30
2018-03-23T16:32:11.153Z,11.10
2018-03-23T16:37:39.324Z,10.57
2018-03-23T16:43:07.467Z,11.10
2018-03-23T16:48:36.388Z,10.90
2018-03-23T16:54:04.547Z,9.97
2018-03-23T16:59:32.710Z,11.20
2018-03-23T17:05:00.866Z,10.90
2018-03-23T17:10:29.034Z,12.17
2018-03-23T17:15:57.174Z,14.03
2018-03-23T17:21:25.450Z,13.90
2018-03-23T17:26:54.422Z,12.90
2018-03-23T17:32:23.316Z,16.97
2018-03-23T17:37:52.240Z,19.67
2018-03-23T17:43:20.492Z,24.33
2018-03-23T17:48:48.606Z,20.60
2018-03-23T17:54:17.735Z,20.47
2018-03-23T17:59:45.927Z,24.10
2018-03-23T18:05:14.075Z,18.20
2018-03-23T18:10:43.575Z,15.80
2018-03-23T18:16:13.718Z,17.80
2018-03-23T18:21:41.899Z,18.47
2018-03-23T18:27:10.237Z,22.93
2018-03-23T18:32:38.460Z,17.70
2018-03-23T18:38:07.366Z,17.27
2018-03-23T18:43:36.819Z,15.20
2018-03-23T18:49:04.986Z,19.77
2018-03-23T18:54:33.122Z,17.30
2018-03-23T19:00:01.333Z,16.00
2018-03-23T19:05:29.523Z,20.50
2018-03-23T19:10:58.439Z,24.07
2018-03-23T19:16:26.577Z,15.53
2018-03-23T19:21:55.484Z,16.50
2018-03-23T19:27:23.633Z,14.10
2018-03-23T19:32:53.777Z,15.43
2018-03-23T19:38:21.990Z,17.67
2018-03-23T19:43:50.175Z,16.77
2018-03-23T19:49:19.336Z,15.73
2018-03-23T19:54:47.512Z,15.60
2018-03-23T20:00:15.915Z,15.57
2018-03-23T20:05:44.089Z,14.00
2018-03-23T20:11:12.243Z,14.00
2018-03-23T20:16:40.889Z,14.83
2018-03-23T20:22:09.095Z,13.10
2018-03-23T20:27:42.847Z,14.63
2018-03-23T20:33:11.790Z,15.87
2018-03-23T20:38:41.002Z,13.60
2018-03-23T20:44:09.176Z,14.70
2018-03-23T20:49:38.269Z,15.40
2018-03-23T20:55:06.546Z,15.77
2018-03-23T21:00:38.122Z,13.70
2018-03-23T21:06:07.261Z,14.10
2018-03-23T21:11:35.705Z,12.73
2018-03-23T21:17:03.931Z,13.70
2018-03-23T21:22:33.859Z,13.43
2018-03-23T21:28:02.079Z,14.97
2018-03-23T21:33:30.238Z,14.43
2018-03-23T21:38:59.121Z,13.17
2018-03-23T21:44:27.281Z,13.27
2018-03-23T21:49:55.411Z,13.57
2018-03-23T21:55:24.327Z,14.33
2018-03-23T22:00:52.475Z,13.10
2018-03-23T22:06:21.398Z,12.70
2018-03-23T22:11:49.527Z,15.50
2018-03-23T22:17:17.679Z,13.93
2018-03-23T22:22:45.818Z,13.87
2018-03-23T22:28:13.958Z,13.40
2018-03-23T22:33:42.126Z,12.77
2018-03-23T22:39:10.287Z,12.00
2018-03-23T22:44:38.474Z,13.57
2018-03-23T22:50:06.818Z,18.25
2018-03-23T22:55:35.027Z,13.63
2018-03-23T23:01:03.167Z,14.50
2018-03-23T23:06:31.347Z,14.30
2018-03-23T23:11:59.493Z,14.30
2018-03-23T23:17:27.635Z,13.47
2018-03-23T23:22:55.780Z,13.03
2018-03-23T23:28:23.916Z,13.53
2018-03-23T23:33:52.817Z,12.80
2018-03-23T23:39:20.992Z,14.00
2018-03-23T23:44:49.136Z,14.33
2018-03-23T23:50:17.323Z,15.80
2018-03-23T23:55:45.491Z,14.93
